createdAt,value
2017-03-13T00:00:58.440Z,15.97
2017-03-13T00:02:08.014Z,16.16
2017-03-13T00:03:18.618Z,16.06
2017-03-13T00:04:28.575Z,16.26
2017-03-13T00:05:38.929Z,16.06
2017-03-13T00:06:48.899Z,16.06
2017-03-13T00:07:59.287Z,16.16
2017-03-13T00:09:09.253Z,16.16
2017-03-13T00:10:19.388Z,16.36
2017-03-13T00:11:29.729Z,16.26
2017-03-13T00:12:39.367Z,16.36
2017-03-13T00:13:50.412Z,16.26
2017-03-13T00:15:00.373Z,16.26
2017-03-13T00:16:09.523Z,16.36
2017-03-13T00:17:19.121Z,16.36
2017-03-13T00:18:29.682Z,16.25
2017-03-13T00:19:40.416Z,16.35
2017-03-13T00:20:50.390Z,16.16
2017-03-13T00:21:59.965Z,16.25
2017-03-13T00:23:09.521Z,16.35
2017-03-13T00:24:19.215Z,16.55
2017-03-13T00:25:29.522Z,16.16
2017-03-13T00:26:39.062Z,16.06
2017-03-13T00:27:49.411Z,16.35
2017-03-13T00:29:00.189Z,16.54
2017-03-13T00:30:10.154Z,16.16
2017-03-13T00:31:20.493Z,16.16
2017-03-13T00:32:30.454Z,16.35
2017-03-13T00:33:40.826Z,16.25
2017-03-13T00:34:50.634Z,16.35
2017-03-13T00:36:00.993Z,16.83
2017-03-13T00:37:10.947Z,16.73
2017-03-13T00:38:20.893Z,16.35
2017-03-13T00:39:31.202Z,16.25
2017-03-13T00:40:41.531Z,16.35
2017-03-13T00:41:52.226Z,16.64
2017-03-13T00:43:01.404Z,16.64
2017-03-13T00:44:10.975Z,16.25
2017-03-13T00:45:20.952Z,16.35
2017-03-13T00:46:30.495Z,16.54
2017-03-13T00:47:40.067Z,16.54
2017-03-13T00:48:48.869Z,16.44
2017-03-13T00:49:58.845Z,16.35
2017-03-13T00:51:09.048Z,16.64
2017-03-13T00:52:18.641Z,16.54
2017-03-13T00:53:27.810Z,16.35
2017-03-13T00:54:38.155Z,16.54
2017-03-13T00:55:47.739Z,16.64
2017-03-13T00:56:58.486Z,16.64
2017-03-13T00:58:08.829Z,16.64
2017-03-13T00:59:18.818Z,16.54
2017-03-13T01:00:29.049Z,16.73
2017-03-13T01:01:39.013Z,16.83
2017-03-13T01:02:48.646Z,16.35
2017-03-13T01:03:58.967Z,16.73
2017-03-13T01:05:08.907Z,16.54
2017-03-13T01:06:18.480Z,16.64
2017-03-13T01:07:28.062Z,16.64
2017-03-13T01:08:37.972Z,16.93
2017-03-13T01:09:48.350Z,16.54
2017-03-13T01:10:58.700Z,16.64
2017-03-13T01:12:08.333Z,16.64
2017-03-13T01:13:19.059Z,16.64
2017-03-13T01:14:28.213Z,16.64
2017-03-13T01:15:38.484Z,16.54
2017-03-13T01:16:49.166Z,16.93
2017-03-13T01:17:59.470Z,16.54
2017-03-13T01:19:09.832Z,16.54
2017-03-13T01:20:20.324Z,16.64
2017-03-13T01:21:30.346Z,16.73
2017-03-13T01:22:40.657Z,16.64
2017-03-13T01:23:51.014Z,16.73
2017-03-13T01:25:01.420Z,16.73
2017-03-13T01:26:11.013Z,16.54
2017-03-13T01:27:21.387Z,16.44
2017-03-13T01:28:31.752Z,16.44
2017-03-13T01:29:41.721Z,16.54
2017-03-13T01:30:51.654Z,16.44
2017-03-13T01:32:01.958Z,16.44
2017-03-13T01:33:12.181Z,16.63
2017-03-13T01:34:21.738Z,16.82
2017-03-13T01:35:31.687Z,16.64
2017-03-13T01:36:41.279Z,16.54
2017-03-13T01:37:50.851Z,16.44
2017-03-13T01:39:00.782Z,16.44
2017-03-13T01:40:10.321Z,16.53
2017-03-13T01:41:20.286Z,16.72
2017-03-13T01:42:30.646Z,16.92
2017-03-13T01:43:40.620Z,16.63
2017-03-13T01:44:50.596Z,16.44
2017-03-13T01:46:00.177Z,16.63
2017-03-13T01:47:09.393Z,16.44
2017-03-13T01:48:19.372Z,16.63
2017-03-13T01:49:29.293Z,16.72
2017-03-13T01:50:39.596Z,16.44
2017-03-13T01:51:49.961Z,16.53
2017-03-13T01:52:59.875Z,16.53
2017-03-13T01:54:09.806Z,16.72
2017-03-13T01:55:19.739Z,16.53
2017-03-13T01:56:28.555Z,16.53
2017-03-13T01:57:38.501Z,16.72
2017-03-13T01:58:48.041Z,16.44
2017-03-13T01:59:57.624Z,16.92
2017-03-13T02:01:07.588Z,16.53
2017-03-13T02:02:17.584Z,16.72
2017-03-13T02:03:27.929Z,16.44
2017-03-13T02:04:37.914Z,16.53
2017-03-13T02:05:48.656Z,16.53
2017-03-13T02:06:59.006Z,16.72
2017-03-13T02:08:08.966Z,16.63
2017-03-13T02:09:18.929Z,16.44
2017-03-13T02:10:29.715Z,16.53
2017-03-13T02:11:40.034Z,16.44
2017-03-13T02:12:50.789Z,16.53
2017-03-13T02:14:01.133Z,16.44
2017-03-13T02:15:11.089Z,16.44
2017-03-13T02:16:21.434Z,16.82
2017-03-13T02:17:32.161Z,16.44
2017-03-13T02:18:42.133Z,16.53
2017-03-13T02:19:52.108Z,16.53
2017-03-13T02:21:02.096Z,16.72
2017-03-13T02:22:12.458Z,16.44
2017-03-13T02:23:22.026Z,16.44
2017-03-13T02:24:31.995Z,16.72
2017-03-13T02:25:41.956Z,16.53
2017-03-13T02:26:51.515Z,16.72
2017-03-13T02:28:01.465Z,16.63
2017-03-13T02:29:11.678Z,16.82
2017-03-13T02:30:21.230Z,16.82
2017-03-13T02:31:30.758Z,16.72
2017-03-13T02:32:40.353Z,16.44
2017-03-13T02:33:50.312Z,16.44
2017-03-13T02:35:00.254Z,16.53
2017-03-13T02:36:09.405Z,16.44
2017-03-13T02:37:19.788Z,16.72
2017-03-13T02:38:29.741Z,16.72
2017-03-13T02:39:38.919Z,16.63
2017-03-13T02:40:48.874Z,16.82
2017-03-13T02:41:59.218Z,16.53
2017-03-13T02:43:09.157Z,16.44
2017-03-13T02:44:18.741Z,16.63
2017-03-13T02:45:28.320Z,16.44
2017-03-13T02:46:38.622Z,16.63
2017-03-13T02:47:48.589Z,16.44
2017-03-13T02:48:58.175Z,16.53
2017-03-13T02:50:08.144Z,16.34
2017-03-13T02:51:18.523Z,16.72
2017-03-13T02:52:28.887Z,16.44
2017-03-13T02:53:38.845Z,16.72
2017-03-13T02:54:49.212Z,16.72
2017-03-13T02:55:59.978Z,16.63
2017-03-13T02:57:10.714Z,16.63
2017-03-13T02:58:20.260Z,16.72
2017-03-13T02:59:30.574Z,16.63
2017-03-13T03:00:41.132Z,16.91
2017-03-13T03:01:51.086Z,16.53
2017-03-13T03:03:01.484Z,16.42
2017-03-13T03:04:12.213Z,16.44
2017-03-13T03:05:21.785Z,16.53
2017-03-13T03:06:31.353Z,16.63
2017-03-13T03:07:40.863Z,16.72
2017-03-13T03:08:50.776Z,16.72
2017-03-13T03:10:00.372Z,16.91
2017-03-13T03:11:10.344Z,16.91
2017-03-13T03:12:20.313Z,16.72
2017-03-13T03:13:30.283Z,16.72
2017-03-13T03:14:40.231Z,16.42
2017-03-13T03:15:50.574Z,16.53
2017-03-13T03:17:00.553Z,16.63
2017-03-13T03:18:09.735Z,16.52
2017-03-13T03:19:19.686Z,16.72
2017-03-13T03:20:30.054Z,16.52
2017-03-13T03:21:40.400Z,16.44
2017-03-13T03:22:49.995Z,16.44
2017-03-13T03:23:59.960Z,16.62
2017-03-13T03:25:09.881Z,16.62
2017-03-13T03:26:20.573Z,16.52
2017-03-13T03:27:31.321Z,16.62
2017-03-13T03:28:41.657Z,16.52
2017-03-13T03:29:51.196Z,16.72
2017-03-13T03:31:01.542Z,16.42
2017-03-13T03:32:11.112Z,16.72
2017-03-13T03:33:21.798Z,16.72
2017-03-13T03:34:31.762Z,16.72
2017-03-13T03:35:41.675Z,16.42
2017-03-13T03:36:51.633Z,16.72
2017-03-13T03:38:01.199Z,16.72
2017-03-13T03:39:10.352Z,16.62
2017-03-13T03:40:20.316Z,16.72
2017-03-13T03:41:30.723Z,16.52
2017-03-13T03:42:41.079Z,16.81
2017-03-13T03:43:51.031Z,16.62
2017-03-13T03:45:01.373Z,16.72
2017-03-13T03:46:11.361Z,16.62
2017-03-13T03:47:21.294Z,16.62
2017-03-13T03:48:30.857Z,16.72
2017-03-13T03:49:40.045Z,16.81
2017-03-13T03:50:50.022Z,16.52
2017-03-13T03:52:00.381Z,16.81
2017-03-13T03:53:09.937Z,16.62
2017-03-13T03:54:20.618Z,16.52
2017-03-13T03:55:30.555Z,16.81
2017-03-13T03:56:41.241Z,16.62
2017-03-13T03:57:50.047Z,16.72
2017-03-13T03:59:00.787Z,16.81
2017-03-13T04:00:09.984Z,16.72
2017-03-13T04:01:20.721Z,16.52
2017-03-13T04:02:31.447Z,16.72
2017-03-13T04:03:41.807Z,16.72
2017-03-13T04:04:52.171Z,16.72
2017-03-13T04:06:02.150Z,16.72
2017-03-13T04:07:12.485Z,16.81
2017-03-13T04:08:22.390Z,16.81
2017-03-13T04:09:31.971Z,16.81
2017-03-13T04:10:42.302Z,16.72
2017-03-13T04:11:51.887Z,16.72
2017-03-13T04:13:02.615Z,16.62
2017-03-13T04:14:12.599Z,16.81
2017-03-13T04:15:22.182Z,16.62
2017-03-13T04:16:32.550Z,16.52
2017-03-13T04:17:43.100Z,16.62
2017-03-13T04:18:51.862Z,16.72
2017-03-13T04:20:01.807Z,16.72
2017-03-13T04:21:11.717Z,16.52
2017-03-13T04:22:21.648Z,16.62
2017-03-13T04:23:31.564Z,16.62
2017-03-13T04:24:41.932Z,16.72
2017-03-13T04:25:51.907Z,16.81
2017-03-13T04:27:01.866Z,16.81
2017-03-13T04:28:12.215Z,16.72
2017-03-13T04:29:22.181Z,16.62
2017-03-13T04:30:32.554Z,16.72
2017-03-13T04:31:42.925Z,16.72
2017-03-13T04:32:53.251Z,16.81
2017-03-13T04:34:03.191Z,16.81
2017-03-13T04:35:13.718Z,16.81
2017-03-13T04:36:24.012Z,16.91
2017-03-13T04:37:34.373Z,16.72
2017-03-13T04:38:44.672Z,16.81
2017-03-13T04:39:55.014Z,16.81
2017-03-13T04:41:04.599Z,16.62
2017-03-13T04:42:13.416Z,16.72
2017-03-13T04:43:23.465Z,16.72
2017-03-13T04:44:33.008Z,16.52
2017-03-13T04:45:43.034Z,16.72
2017-03-13T04:46:52.968Z,16.81
2017-03-13T04:48:02.906Z,16.91
2017-03-13T04:49:12.487Z,16.9
2017-03-13T04:50:22.466Z,16.8
2017-03-13T04:51:32.038Z,16.71
2017-03-13T04:52:41.240Z,16.9
2017-03-13T04:53:51.581Z,16.91
2017-03-13T04:55:01.543Z,16.8
2017-03-13T04:56:11.885Z,16.71
2017-03-13T04:57:22.189Z,16.8
2017-03-13T04:58:31.729Z,16.8
2017-03-13T04:59:42.086Z,16.81
2017-03-13T05:00:52.453Z,16.8
2017-03-13T05:02:02.416Z,16.8
2017-03-13T05:03:12.768Z,16.8
2017-03-13T05:04:23.123Z,17.09
2017-03-13T05:05:33.843Z,16.71
2017-03-13T05:06:43.752Z,16.8
2017-03-13T05:07:54.073Z,16.99
2017-03-13T05:09:04.043Z,16.71
2017-03-13T05:10:13.257Z,16.71
2017-03-13T05:11:23.618Z,16.8
2017-03-13T05:12:33.979Z,17.09
2017-03-13T05:13:44.334Z,16.9
2017-03-13T05:14:53.611Z,16.99
2017-03-13T05:16:03.983Z,17.29
2017-03-13T05:17:14.313Z,16.71
2017-03-13T05:18:24.628Z,16.8
2017-03-13T05:19:34.935Z,16.71
2017-03-13T05:20:45.287Z,17.19
2017-03-13T05:21:54.865Z,17.29
2017-03-13T05:23:04.869Z,16.8
2017-03-13T05:24:15.657Z,16.71
2017-03-13T05:25:25.239Z,16.71
2017-03-13T05:26:35.991Z,17.29
2017-03-13T05:27:45.994Z,16.61
2017-03-13T05:28:55.945Z,16.71
2017-03-13T05:30:05.520Z,16.99
2017-03-13T05:31:15.510Z,16.9
2017-03-13T05:32:25.465Z,17.09
2017-03-13T05:33:35.422Z,17.19
2017-03-13T05:34:45.797Z,16.71
2017-03-13T05:35:55.773Z,16.99
2017-03-13T05:37:05.352Z,17
2017-03-13T05:38:15.690Z,17.38
